Time;durP1;ratioP1;P1;durP2;ratioP2;P2;SDS_P1;SDS_P2;PMS_P1;PMS_P2;Temp;Humidity;BMP_temperature;BMP_pressure;BME280_temperature;BME280_humidity;BME280_pressure;Samples;Min_cycle;Max_cycle;Signal;HPM_P1;HPM_P2
2022/06/29 00:00:26;;;;;;;3.50;1.60;;;17.80;99.90;;;;;;5085907;28;20106;-69
2022/06/29 00:02:52;;;;;;;2.63;1.70;;;17.80;99.90;;;;;;5085667;28;20016;-69
2022/06/29 00:05:21;;;;;;;4.15;1.60;;;17.70;99.90;;;;;;5094626;28;20018;-70
2022/06/29 00:07:47;;;;;;;3.63;1.80;;;17.60;99.90;;;;;;5091286;28;20020;-69
2022/06/29 00:10:14;;;;;;;4.57;1.67;;;17.60;99.90;;;;;;5083321;28;20384;-69
2022/06/29 00:12:43;;;;;;;2.53;1.77;;;17.70;99.90;;;;;;5085798;28;20017;-69
2022/06/29 00:15:09;;;;;;;3.30;1.90;;;17.40;99.90;;;;;;5082359;28;20119;-69
2022/06/29 00:17:34;;;;;;;3.85;1.60;;;17.50;99.90;;;;;;5077650;28;20021;-69
2022/06/29 00:20:01;;;;;;;2.60;1.70;;;17.50;99.90;;;;;;5081844;28;20542;-69
2022/06/29 00:22:28;;;;;;;2.72;1.80;;;17.50;99.90;;;;;;5085609;28;20053;-69
2022/06/29 00:24:53;;;;;;;3.25;1.70;;;17.40;99.90;;;;;;5077320;28;20556;-69
2022/06/29 00:27:19;;;;;;;6.43;2.35;;;17.40;99.90;;;;;;5086938;28;20099;-68
2022/06/29 00:29:45;;;;;;;2.78;1.67;;;17.10;99.90;;;;;;5097340;28;20506;-69
2022/06/29 00:32:14;;;;;;;3.45;1.80;;;17.20;99.90;;;;;;5086259;28;20035;-69
2022/06/29 00:34:40;;;;;;;4.38;1.90;;;17.10;99.90;;;;;;5077523;28;20109;-69
2022/06/29 00:37:05;;;;;;;4.38;1.92;;;17.10;99.90;;;;;;5086539;28;20082;-69
2022/06/29 00:39:33;;;;;;;4.15;2.00;;;17.10;99.90;;;;;;5087470;28;20028;-68
2022/06/29 00:41:59;;;;;;;5.13;1.83;;;17.00;99.90;;;;;;5082362;28;20510;-69
2022/06/29 00:44:25;;;;;;;3.20;1.75;;;17.10;99.90;;;;;;5079845;28;20033;-69
2022/06/29 00:46:54;;;;;;;3.42;2.15;;;;;;;;;;5081374;28;20422;-69
2022/06/29 00:49:21;;;;;;;4.55;1.80;;;;;;;;;;5084596;28;20030;-69
2022/06/29 00:51:49;;;;;;;5.07;1.90;;;;;;;;;;5088340;28;20112;-68
2022/06/29 00:54:19;;;;;;;5.97;2.28;;;;;;;;;;5081779;28;20020;-69
2022/06/29 00:56:45;;;;;;;8.18;2.38;;;;;;;;;;5086398;28;20361;-69
2022/06/29 00:59:13;;;;;;;5.50;2.40;;;;;;;;;;5084948;28;20035;-69
2022/06/29 01:01:40;;;;;;;3.00;1.80;;;;;;;;;;5082951;28;20024;-68
2022/06/29 01:04:06;;;;;;;4.97;2.20;;;;;;;;;;5086886;28;20078;-69
2022/06/29 01:06:32;;;;;;;4.22;2.03;;;16.40;99.90;;;;;;5084339;28;20051;-69
2022/06/29 01:08:58;;;;;;;4.68;2.10;;;16.80;99.90;;;;;;5086973;28;20039;-69
2022/06/29 01:11:23;;;;;;;3.85;2.10;;;16.90;99.90;;;;;;5080309;28;20024;-68
2022/06/29 01:13:49;;;;;;;7.85;2.53;;;16.80;99.90;;;;;;5087232;28;20027;-70
2022/06/29 01:16:15;;;;;;;3.88;2.17;;;16.70;99.90;;;;;;5083043;28;20067;-69
2022/06/29 01:18:43;;;;;;;4.07;2.17;;;;;;;;;;5080054;28;20052;-69
2022/06/29 01:21:11;;;;;;;2.58;1.92;;;;;;;;;;5082908;28;20024;-69
2022/06/29 01:23:37;;;;;;;3.63;2.15;;;;;;;;;;5083033;28;20020;-68
2022/06/29 01:26:04;;;;;;;5.38;2.35;;;16.60;99.90;;;;;;5083271;28;20060;-69
2022/06/29 01:28:31;;;;;;;6.05;1.90;;;16.90;99.90;;;;;;5081232;28;20110;-69
2022/06/29 01:30:57;;;;;;;3.45;2.33;;;16.70;99.90;;;;;;5081532;28;20141;-69
2022/06/29 01:33:23;;;;;;;3.20;1.80;;;16.70;99.90;;;;;;5084462;28;20501;-69
2022/06/29 01:35:50;;;;;;;3.70;2.05;;;;;;;;;;5076654;28;20021;-68
2022/06/29 01:38:17;;;;;;;4.75;2.17;;;;;;;;;;5078856;28;20025;-69
2022/06/29 01:40:43;;;;;;;5.30;2.10;;;;;;;;;;5077038;28;20379;-69
2022/06/29 01:43:10;;;;;;;3.92;2.20;;;;;;;;;;5082913;28;20056;-69
2022/06/29 01:45:35;;;;;;;3.92;2.33;;;16.40;99.90;;;;;;5083820;28;20016;-69
2022/06/29 01:48:01;;;;;;;4.57;2.25;;;16.60;99.90;;;;;;5079722;28;20024;-69
2022/06/29 01:50:28;;;;;;;6.40;2.67;;;;;;;;;;5079489;28;20056;-69
2022/06/29 01:52:54;;;;;;;2.88;2.10;;;;;;;;;;5084121;28;20528;-68
2022/06/29 01:55:20;;;;;;;6.72;2.22;;;;;;;;;;5082307;28;20051;-69
2022/06/29 01:57:46;;;;;;;4.75;2.38;;;;;;;;;;5084693;28;20072;-68
2022/06/29 02:00:14;;;;;;;4.72;2.30;;;;;;;;;;5074188;28;20047;-68
2022/06/29 02:02:40;;;;;;;5.75;2.30;;;;;;;;;;5081057;28;20358;-69
2022/06/29 02:05:06;;;;;;;6.40;2.22;;;;;;;;;;5081433;28;20115;-69
2022/06/29 02:07:32;;;;;;;3.58;2.13;;;;;;;;;;5084949;28;20016;-69
2022/06/29 02:09:58;;;;;;;3.90;2.17;;;;;;;;;;5079775;28;20017;-68
2022/06/29 02:12:25;;;;;;;4.80;2.50;;;;;;;;;;5085744;28;20435;-68
2022/06/29 02:14:51;;;;;;;3.90;2.13;;;;;;;;;;5086371;28;20388;-68
2022/06/29 02:17:19;;;;;;;6.35;2.20;;;;;;;;;;5085957;28;20077;-68
2022/06/29 02:19:45;;;;;;;5.78;2.20;;;;;;;;;;5077180;28;20031;-69
2022/06/29 02:22:11;;;;;;;3.65;2.13;;;;;;;;;;5077581;28;20622;-68
2022/06/29 02:24:37;;;;;;;4.50;2.10;;;;;;;;;;5086745;28;20028;-68
2022/06/29 02:27:03;;;;;;;4.32;2.20;;;;;;;;;;5083548;28;20065;-68
2022/06/29 02:29:29;;;;;;;3.50;1.90;;;;;;;;;;5081563;28;20437;-68
2022/06/29 02:34:49;;;;;;;4.47;2.25;;;;;;;;;;5084490;28;20093;-69
2022/06/29 02:37:15;;;;;;;3.78;2.20;;;;;;;;;;5087626;28;20553;-69
2022/06/29 02:39:42;;;;;;;5.90;2.38;;;;;;;;;;5077636;28;20487;-69
2022/06/29 02:42:09;;;;;;;3.08;2.20;;;;;;;;;;5079340;28;20055;-68
2022/06/29 02:44:35;;;;;;;5.28;2.50;;;;;;;;;;5077936;28;20028;-69
2022/06/29 02:47:01;;;;;;;5.03;2.72;;;;;;;;;;5081598;28;20016;-68
2022/06/29 02:49:27;;;;;;;5.55;2.42;;;;;;;;;;5078120;28;20055;-69
2022/06/29 02:51:53;;;;;;;6.28;2.35;;;;;;;;;;5079827;28;20103;-69
2022/06/29 02:54:19;;;;;;;3.88;2.20;;;;;;;;;;5080018;28;20025;-69
2022/06/29 02:56:45;;;;;;;4.68;2.42;;;;;;;;;;5084399;28;20035;-68
2022/06/29 02:59:11;;;;;;;8.02;2.45;;;;;;;;;;5080805;28;20028;-68
2022/06/29 03:01:37;;;;;;;5.22;2.50;;;;;;;;;;5083346;28;20062;-68
2022/06/29 03:04:03;;;;;;;6.50;2.50;;;;;;;;;;5079627;28;20064;-68
2022/06/29 03:06:29;;;;;;;4.18;2.63;;;;;;;;;;5085235;28;20028;-67
2022/06/29 03:08:55;;;;;;;4.75;2.40;;;;;;;;;;5087549;28;20127;-69
2022/06/29 03:11:21;;;;;;;3.53;2.55;;;;;;;;;;5086904;28;20371;-69
2022/06/29 03:13:47;;;;;;;4.38;2.38;;;;;;;;;;5085347;28;20025;-69
2022/06/29 03:16:13;;;;;;;4.07;2.35;;;;;;;;;;5081332;28;20032;-69
2022/06/29 03:18:39;;;;;;;4.15;2.42;;;;;;;;;;5080228;28;20032;-69
2022/06/29 03:21:05;;;;;;;4.75;2.53;;;;;;;;;;5084387;28;20512;-68
2022/06/29 03:23:31;;;;;;;6.05;2.40;;;;;;;;;;5082282;28;20038;-69
2022/06/29 03:25:57;;;;;;;5.90;2.85;;;;;;;;;;5079840;28;20115;-68
2022/06/29 03:28:23;;;;;;;6.70;2.40;;;;;;;;;;5084354;28;20122;-68
2022/06/29 03:30:49;;;;;;;5.72;2.70;;;;;;;;;;5090237;28;20028;-68
2022/06/29 03:33:15;;;;;;;5.70;2.70;;;;;;;;;;5101997;27;20020;-69
2022/06/29 03:35:41;;;;;;;4.18;2.65;;;;;;;;;;5085103;28;20495;-68
2022/06/29 03:38:07;;;;;;;3.28;2.40;;;;;;;;;;5081510;28;20027;-67
2022/06/29 03:40:33;;;;;;;4.97;2.55;;;;;;;;;;5086054;28;20084;-70
2022/06/29 03:42:59;;;;;;;5.38;2.60;;;;;;;;;;5081989;28;20054;-69
2022/06/29 03:45:25;;;;;;;5.35;2.35;;;;;;;;;;5080530;28;20028;-69
2022/06/29 03:47:51;;;;;;;4.03;2.45;;;;;;;;;;5077087;28;20467;-67
2022/06/29 03:50:17;;;;;;;5.30;2.53;;;;;;;;;;5082708;28;20077;-69
2022/06/29 03:52:43;;;;;;;4.53;2.67;;;;;;;;;;5087017;28;20063;-69
2022/06/29 03:55:09;;;;;;;4.88;2.60;;;;;;;;;;5078778;28;20062;-69
2022/06/29 03:57:35;;;;;;;6.93;2.78;;;;;;;;;;5084367;28;20023;-69
2022/06/29 04:00:01;;;;;;;3.50;2.67;;;;;;;;;;5080373;28;20024;-69
2022/06/29 04:02:27;;;;;;;3.40;2.63;;;;;;;;;;5082403;28;20107;-68
2022/06/29 04:04:53;;;;;;;5.28;2.78;;;;;;;;;;5082065;28;20159;-68
2022/06/29 04:07:19;;;;;;;3.90;2.60;;;;;;;;;;5087226;28;20027;-70
2022/06/29 04:09:45;;;;;;;4.63;2.55;;;;;;;;;;5086120;28;20023;-69
2022/06/29 04:12:11;;;;;;;4.07;2.80;;;;;;;;;;5080874;28;20016;-68
2022/06/29 04:14:38;;;;;;;6.07;2.70;;;;;;;;;;5082120;28;20017;-69
2022/06/29 04:17:04;;;;;;;8.98;2.47;;;;;;;;;;5084038;28;20039;-69
2022/06/29 04:19:30;;;;;;;3.80;2.38;;;;;;;;;;5085131;28;20051;-69
2022/06/29 04:21:56;;;;;;;5.43;2.78;;;;;;;;;;5086176;28;20215;-68
2022/06/29 04:24:22;;;;;;;4.22;2.25;;;;;;;;;;5082329;28;20020;-69
2022/06/29 04:26:48;;;;;;;5.18;2.53;;;;;;;;;;5078010;28;20020;-69
2022/06/29 04:29:14;;;;;;;3.53;2.50;;;;;;;;;;5087015;28;20701;-68
2022/06/29 04:31:41;;;;;;;4.25;3.17;;;;;;;;;;5077490;28;20529;-68
2022/06/29 04:34:07;;;;;;;4.30;2.30;;;;;;;;;;5075997;28;20040;-68
2022/06/29 04:36:33;;;;;;;5.15;2.83;;;;;;;;;;5086562;28;20039;-69
2022/06/29 04:38:58;;;;;;;4.38;2.88;;;15.60;99.90;;;;;;5088211;28;20103;-69
2022/06/29 04:41:24;;;;;;;4.65;2.80;;;15.70;99.90;;;;;;5088295;28;20576;-68
2022/06/29 04:43:50;;;;;;;3.53;2.65;;;15.70;99.90;;;;;;5085165;28;20055;-69
2022/06/29 04:46:19;;;;;;;3.15;2.65;;;15.70;99.90;;;;;;5090547;28;20391;-64
2022/06/29 04:48:46;;;;;;;5.30;3.05;;;15.70;99.90;;;;;;5084234;28;20020;-63
2022/06/29 04:51:12;;;;;;;3.65;2.95;;;15.70;99.90;;;;;;5084350;28;20156;-73
2022/06/29 04:53:37;;;;;;;5.68;3.20;;;15.70;99.90;;;;;;5092655;28;20662;-69
2022/06/29 04:56:03;;;;;;;6.05;3.17;;;15.70;99.90;;;;;;5083451;28;20048;-72
2022/06/29 04:58:29;;;;;;;6.32;2.78;;;15.80;99.90;;;;;;5087842;28;20051;-70
2022/06/29 05:00:55;;;;;;;5.15;3.10;;;16.00;99.90;;;;;;5092206;28;20039;-72
2022/06/29 05:03:20;;;;;;;4.38;3.03;;;16.00;99.90;;;;;;5082233;28;20405;-72
2022/06/29 05:05:47;;;;;;;4.35;2.90;;;16.00;99.90;;;;;;5085966;28;20099;-71
2022/06/29 05:08:16;;;;;;;5.05;2.60;;;16.00;99.90;;;;;;5085178;28;20463;-69
2022/06/29 05:10:42;;;;;;;5.65;3.10;;;16.10;99.90;;;;;;5085365;28;20103;-70
2022/06/29 05:13:11;;;;;;;5.97;2.80;;;16.20;99.90;;;;;;5082250;28;20095;-72
2022/06/29 05:15:39;;;;;;;6.78;2.92;;;16.30;99.90;;;;;;5078372;28;20050;-71
2022/06/29 05:18:05;;;;;;;8.45;3.30;;;16.50;99.90;;;;;;5087654;28;20036;-72
2022/06/29 05:20:31;;;;;;;8.32;3.63;;;16.60;99.90;;;;;;5086298;28;20384;-72
2022/06/29 05:22:56;;;;;;;26.10;19.90;;;16.70;99.90;;;;;;5085638;28;20494;-66
2022/06/29 05:25:23;;;;;;;7.00;3.78;;;16.80;99.90;;;;;;5079478;28;20022;-67
2022/06/29 05:27:49;;;;;;;6.88;3.20;;;17.10;99.90;;;;;;5086263;28;20171;-67
2022/06/29 05:30:15;;;;;;;7.50;3.20;;;17.40;99.90;;;;;;5071329;28;20127;-67
2022/06/29 05:32:41;;;;;;;6.60;2.97;;;17.60;99.90;;;;;;5083678;28;20028;-67
2022/06/29 05:35:08;;;;;;;6.80;2.70;;;17.80;99.90;;;;;;5075867;28;22080;-67
2022/06/29 05:37:34;;;;;;;5.97;2.90;;;;;;;;;;5077665;28;20133;-67
2022/06/29 05:40:00;;;;;;;4.65;2.67;;;;;;;;;;5081955;28;20035;-67
2022/06/29 05:42:26;;;;;;;5.93;2.90;;;;;;;;;;5083796;28;20032;-67
2022/06/29 05:44:52;;;;;;;4.88;2.65;;;;;;;;;;5088084;28;20498;-67
2022/06/29 05:47:18;;;;;;;8.55;2.78;;;;;;;;;;5089313;28;20020;-67
2022/06/29 05:49:44;;;;;;;5.40;2.65;;;;;;;;;;5094194;28;20028;-67
2022/06/29 05:52:10;;;;;;;4.40;1.98;;;;;;;;;;5084032;28;20020;-67
2022/06/29 05:54:36;;;;;;;4.95;2.53;;;;;;;;;;5083302;28;20066;-67
2022/06/29 05:57:05;;;;;;;7.75;2.50;;;;;;;;;;5087039;28;20669;-67
2022/06/29 05:59:31;;;;;;;7.70;2.60;;;;;;;;;;5086700;28;20095;-67
2022/06/29 06:01:57;;;;;;;5.38;2.65;;;;;;;;;;5085487;28;20028;-67
2022/06/29 06:04:23;;;;;;;7.85;3.08;;;;;;;;;;5088854;28;20107;-67
2022/06/29 06:06:49;;;;;;;10.30;3.45;;;;;;;;;;5086555;28;20115;-67
2022/06/29 06:09:15;;;;;;;7.22;2.95;;;;;;;;;;5087676;28;20082;-67
2022/06/29 06:11:41;;;;;;;7.20;3.05;;;;;;;;;;5092080;28;20015;-68
2022/06/29 06:14:07;;;;;;;7.03;3.08;;;;;;;;;;5088550;28;20109;-68
2022/06/29 06:16:33;;;;;;;8.40;3.30;;;;;;;;;;5084037;28;20028;-68
2022/06/29 06:18:59;;;;;;;8.18;3.28;;;;;;;;;;5093224;28;20032;-68
2022/06/29 06:21:25;;;;;;;7.13;2.97;;;;;;;;;;5085206;28;20078;-67
2022/06/29 06:23:51;;;;;;;8.52;3.15;;;;;;;;;;5085779;28;20024;-67
2022/06/29 06:26:17;;;;;;;5.07;2.20;;;;;;;;;;5080211;28;20580;-68
2022/06/29 06:28:43;;;;;;;4.32;2.15;;;;;;;;;;5085660;28;20085;-68
2022/06/29 06:31:09;;;;;;;4.40;2.30;;;;;;;;;;5083548;28;20038;-68
2022/06/29 06:33:35;;;;;;;5.78;2.40;;;;;;;;;;5085088;28;20027;-68
2022/06/29 06:36:01;;;;;;;8.73;2.53;;;;;;;;;;5090379;28;20024;-68
2022/06/29 06:38:27;;;;;;;5.20;2.40;;;;;;;;;;5082765;28;20024;-68
2022/06/29 06:43:38;;;;;;;5.95;2.20;;;;;;;;;;5083715;28;20150;-68
2022/06/29 06:46:05;;;;;;;4.97;2.15;;;;;;;;;;5090106;28;20056;-68
2022/06/29 06:48:31;;;;;;;7.65;1.98;;;;;;;;;;5088845;28;20052;-68
2022/06/29 06:50:57;;;;;;;6.32;2.22;;;;;;;;;;5088564;28;20026;-68
2022/06/29 06:53:23;;;;;;;6.13;2.42;;;;;;;;;;5077463;28;20016;-68
2022/06/29 06:55:49;;;;;;;8.68;2.30;;;;;;;;;;5092434;28;20024;-68
2022/06/29 06:58:15;;;;;;;7.35;2.10;;;;;;;;;;5087893;28;20028;-68
2022/06/29 07:00:41;;;;;;;4.03;1.85;;;;;;;;;;5088633;28;20081;-68
2022/06/29 07:03:07;;;;;;;8.20;2.47;;;;;;;;;;5093755;28;20062;-68
2022/06/29 07:05:33;;;;;;;7.05;2.05;;;;;;;;;;5093804;28;20048;-68
2022/06/29 07:07:59;;;;;;;5.32;2.00;;;;;;;;;;5089759;28;20035;-68
2022/06/29 07:10:25;;;;;;;8.30;2.25;;;;;;;;;;5082794;28;20024;-69
2022/06/29 07:12:51;;;;;;;7.57;2.00;;;;;;;;;;5088616;28;20024;-68
2022/06/29 07:15:17;;;;;;;4.80;1.95;;;;;;;;;;5085737;28;20016;-68
2022/06/29 07:17:43;;;;;;;5.20;1.73;;;;;;;;;;5090728;28;20102;-69
2022/06/29 07:20:09;;;;;;;47.08;39.90;;;;;;;;;;5089504;28;20103;-70
2022/06/29 07:22:35;;;;;;;5.68;3.53;;;;;;;;;;5090513;28;20066;-70
2022/06/29 07:25:01;;;;;;;5.80;2.40;;;;;;;;;;5089079;28;20020;-73
2022/06/29 07:27:28;;;;;;;5.38;2.10;;;;;;;;;;5087274;28;20482;-69
2022/06/29 07:29:54;;;;;;;4.70;2.30;;;;;;;;;;5088124;28;20027;-69
2022/06/29 07:32:20;;;;;;;5.65;1.95;;;;;;;;;;5088186;28;20064;-69
2022/06/29 07:34:46;;;;;;;5.63;2.33;;;;;;;;;;5090732;28;20482;-69
2022/06/29 07:37:12;;;;;;;5.57;1.90;;;;;;;;;;5080257;28;20610;-69
2022/06/29 07:39:38;;;;;;;6.07;1.80;;;;;;;;;;5089712;28;20020;-70
2022/06/29 07:42:05;;;;;;;3.95;1.95;;;;;;;;;;5076765;28;20035;-70
2022/06/29 07:44:31;;;;;;;5.93;2.00;;;;;;;;;;5094594;28;20672;-70
2022/06/29 07:46:57;;;;;;;6.60;1.73;;;;;;;;;;5086263;28;20031;-69
2022/06/29 07:49:23;;;;;;;3.80;1.63;;;;;;;;;;5086945;28;20012;-70
2022/06/29 07:51:49;;;;;;;3.65;2.10;;;;;;;;;;5082276;28;20028;-63
2022/06/29 07:54:15;;;;;;;5.22;1.75;;;;;;;;;;5083039;28;20023;-60
2022/06/29 07:56:42;;;;;;;8.20;5.07;;;;;;;;;;5087348;28;20685;-71
2022/06/29 07:59:08;;;;;;;7.88;2.10;;;;;;;;;;5081734;28;20089;-72
2022/06/29 08:01:34;;;;;;;4.85;2.35;;;;;;;;;;5081588;28;20037;-72
2022/06/29 08:04:00;;;;;;;5.07;2.25;;;;;;;;;;5080043;28;20123;-72
2022/06/29 08:06:26;;;;;;;6.25;2.10;;;;;;;;;;5090123;28;20103;-69
2022/06/29 08:08:52;;;;;;;7.20;2.25;;;;;;;;;;5095097;28;20020;-72
2022/06/29 08:11:18;;;;;;;7.53;2.33;;;;;;;;;;5087338;28;20073;-71
2022/06/29 08:13:44;;;;;;;3.33;2.08;;;;;;;;;;5088447;27;20028;-72
2022/06/29 08:16:10;;;;;;;4.75;2.13;;;;;;;;;;5085336;28;20585;-72
2022/06/29 08:18:36;;;;;;;7.03;2.05;;;;;;;;;;5090349;28;20028;-72
2022/06/29 08:21:03;;;;;;;5.40;2.38;;;;;;;;;;5092531;28;20102;-71
2022/06/29 08:23:29;;;;;;;6.15;2.40;;;;;;;;;;5088286;27;20081;-72
2022/06/29 08:25:56;;;;;;;6.05;2.30;;;;;;;;;;5086697;28;20028;-71
2022/06/29 08:28:23;;;;;;;5.93;2.22;;;;;;;;;;5081605;28;20031;-70
2022/06/29 08:30:49;;;;;;;6.82;2.40;;;;;;;;;;5090929;28;20042;-71
2022/06/29 08:33:15;;;;;;;6.25;2.50;;;;;;;;;;5087449;28;20024;-71
2022/06/29 08:35:41;;;;;;;6.55;2.58;;;;;;;;;;5089945;28;20068;-70
2022/06/29 08:38:08;;;;;;;6.53;2.58;;;;;;;;;;5092162;28;20032;-71
2022/06/29 08:40:47;;;;;;;6.15;2.45;;;;;;;;;;5088238;28;20050;-71
2022/06/29 08:43:13;;;;;;;4.72;2.33;;;;;;;;;;5087036;28;20375;-71
2022/06/29 08:45:44;;;;;;;4.78;2.35;;;;;;;;;;5084190;28;20020;-71
2022/06/29 08:48:11;;;;;;;5.53;2.10;;;;;;;;;;5087093;28;20072;-70
2022/06/29 08:50:44;;;;;;;6.68;2.58;;;;;;;;;;5079120;28;20020;-71
2022/06/29 08:53:13;;;;;;;6.93;2.35;;;;;;;;;;5089922;28;20019;-71
2022/06/29 08:55:44;;;;;;;3.70;2.00;;;;;;;;;;5089585;28;20022;-72
2022/06/29 08:58:14;;;;;;;5.03;2.35;;;;;;;;;;5086483;28;20011;-71
2022/06/29 09:00:40;;;;;;;5.82;2.10;;;;;;;;;;5083144;28;20027;-71
2022/06/29 09:03:06;;;;;;;4.85;2.50;;;;;;;;;;5088766;28;20115;-71
2022/06/29 09:05:33;;;;;;;5.47;2.25;;;;;;;;;;5084786;28;20785;-71
2022/06/29 09:07:59;;;;;;;5.75;2.70;;;;;;;;;;5086667;28;20020;-72
2022/06/29 09:10:25;;;;;;;4.15;2.50;;;;;;;;;;5084013;28;20016;-72
2022/06/29 09:12:52;;;;;;;5.22;2.30;;;;;;;;;;5089814;28;20408;-71
2022/06/29 09:15:30;;;;;;;4.80;2.55;;;;;;;;;;5086135;28;20027;-71
2022/06/29 09:17:56;;;;;;;5.20;2.30;;;;;;;;;;5089012;28;20558;-70
2022/06/29 09:20:22;;;;;;;6.72;2.50;;;;;;;;;;5080002;28;20020;-72
2022/06/29 09:22:55;;;;;;;13.63;2.53;;;;;;;;;;5090321;28;20027;-71
2022/06/29 09:25:23;;;;;;;7.35;2.60;;;;;;;;;;5078778;28;20024;-72
2022/06/29 09:27:49;;;;;;;6.65;2.67;;;;;;;;;;5086534;28;20596;-71
2022/06/29 09:30:38;;;;;;;3.25;2.45;;;;;;;;;;5086382;28;20363;-69
2022/06/29 09:33:06;;;;;;;7.65;2.65;;;;;;;;;;5076427;28;20556;-71
2022/06/29 09:35:33;;;;;;;4.72;2.33;;;;;;;;;;5077777;28;20030;-71
2022/06/29 09:38:19;;;;;;;6.07;2.30;;;;;;;;;;5083869;28;20020;-69
2022/06/29 09:40:58;;;;;;;8.88;2.50;;;;;;;;;;5080940;28;20024;-72
2022/06/29 09:43:24;;;;;;;6.68;2.78;;;;;;;;;;5087375;28;20109;-71
2022/06/29 09:45:52;;;;;;;4.90;2.13;;;;;;;;;;5086124;28;20050;-71
2022/06/29 09:48:19;;;;;;;9.40;2.90;;;;;;;;;;5092040;28;20019;-70
2022/06/29 09:50:45;;;;;;;4.75;2.10;;;;;;;;;;5085385;28;20020;-71
2022/06/29 09:53:12;;;;;;;7.45;2.17;;;;;;;;;;5081977;28;20542;-71
2022/06/29 09:55:38;;;;;;;5.18;2.10;;;;;;;;;;5079853;28;20024;-71
2022/06/29 09:58:04;;;;;;;5.30;2.05;;;;;;;;;;5092661;28;20394;-71
2022/06/29 10:03:15;;;;;;;4.43;2.40;;;;;;;;;;5082289;28;20195;-72
2022/06/29 10:06:05;;;;;;;6.85;2.28;;;;;;;;;;5086544;28;20016;-72
2022/06/29 10:08:31;;;;;;;4.88;1.80;;;;;;;;;;5086827;28;20080;-71
2022/06/29 10:13:39;;;;;;;8.98;2.20;;;;;;;;;;5089013;28;20028;-71
2022/06/29 10:13:47;;;;;;;6.68;2.15;;;;;;;;;;5082675;28;20032;-71
2022/06/29 10:16:18;;;;;;;5.88;2.28;;;;;;;;;;5086192;28;20019;-71
2022/06/29 10:19:02;;;;;;;8.48;2.60;;;;;;;;;;5085788;28;20395;-71
2022/06/29 10:21:30;;;;;;;5.88;2.42;;;;;;;;;;5083394;28;20021;-71
2022/06/29 10:23:56;;;;;;;3.72;1.88;;;;;;;;;;5084957;28;20634;-71
2022/06/29 10:26:32;;;;;;;3.60;2.08;;;;;;;;;;5086477;28;20016;-71
2022/06/29 10:29:07;;;;;;;9.88;2.45;;;;;;;;;;5086304;28;20012;-71
2022/06/29 10:31:52;;;;;;;6.30;2.35;;;;;;;;;;5086590;28;20471;-71
2022/06/29 10:34:30;;;;;;;8.07;2.38;;;;;;;;;;5095434;28;20525;-71
2022/06/29 10:37:11;;;;;;;5.40;2.17;;;;;;;;;;5080157;28;20028;-71
2022/06/29 10:39:48;;;;;;;4.50;2.30;;;;;;;;;;5090730;28;20097;-71
2022/06/29 10:45:08;;;;;;;5.80;2.38;;;;;;;;;;5081481;28;20517;-72
2022/06/29 10:47:35;;;;;;;11.82;2.22;;;;;;;;;;5085876;28;20671;-72
2022/06/29 10:50:23;;;;;;;7.82;2.47;;;;;;;;;;5090152;28;20412;-71
2022/06/29 10:52:49;;;;;;;8.73;2.67;;;;;;;;;;5087302;28;20095;-72
2022/06/29 10:55:16;;;;;;;5.78;2.38;;;;;;;;;;5082421;28;20028;-71
2022/06/29 10:57:43;;;;;;;7.40;2.65;;;;;;;;;;5088565;28;20027;-71
2022/06/29 11:00:10;;;;;;;4.25;1.95;;;;;;;;;;5084841;28;20027;-71
2022/06/29 11:02:39;;;;;;;4.60;1.83;;;;;;;;;;5091548;28;20024;-72
2022/06/29 11:05:05;;;;;;;7.82;2.20;;;;;;;;;;5087129;28;20031;-71
2022/06/29 11:13:00;;;;;;;7.40;2.40;;;;;;;;;;5086881;28;20083;-72
2022/06/29 11:15:39;;;;;;;5.50;2.30;;;;;;;;;;5084003;28;20063;-71
2022/06/29 11:18:06;;;;;;;9.43;2.60;;;;;;;;;;5081154;28;20180;-71
2022/06/29 11:20:32;;;;;;;13.05;2.80;;;;;;;;;;5086780;28;21017;-71
2022/06/29 11:22:58;;;;;;;7.55;2.40;;;;;;;;;;5084450;28;20028;-71
2022/06/29 11:25:24;;;;;;;5.95;2.38;;;;;;;;;;5082916;28;20063;-71
2022/06/29 11:27:50;;;;;;;6.97;2.90;;;;;;;;;;5086645;28;20059;-71
2022/06/29 11:30:21;;;;;;;5.45;2.40;;;;;;;;;;5090528;28;20019;-71
2022/06/29 11:32:48;;;;;;;5.40;2.78;;;;;;;;;;5083764;28;20032;-69
2022/06/29 11:35:18;;;;;;;5.50;2.40;;;;;;;;;;5085298;28;20016;-70
2022/06/29 11:37:50;;;;;;;10.85;2.47;;;;;;;;;;5087136;28;20020;-71
2022/06/29 11:40:20;;;;;;;7.55;2.50;;;;;;;;;;5088242;28;20509;-70
2022/06/29 11:43:05;;;;;;;6.50;2.28;;;;;;;;;;5086886;28;20434;-71
2022/06/29 11:45:43;;;;;;;8.82;2.45;;;;;;;;;;5085705;28;20030;-71
2022/06/29 11:48:13;;;;;;;6.25;2.10;;;;;;;;;;5098743;28;20032;-72
2022/06/29 11:50:51;;;;;;;5.20;2.17;;;;;;;;;;5083886;28;20479;-70
2022/06/29 11:53:37;;;;;;;5.38;1.98;;;;;;;;;;5097649;28;20490;-71
2022/06/29 11:56:10;;;;;;;4.60;2.25;;;;;;;;;;5057092;28;20148;-71
2022/06/29 11:58:37;;;;;;;3.28;1.95;;;;;;;;;;5089941;28;20020;-70
2022/06/29 12:01:07;;;;;;;3.75;1.80;;;;;;;;;;5083630;28;20388;-71
2022/06/29 12:03:32;;;;;;;6.68;2.50;;;;;;;;;;5077179;28;20459;-71
2022/06/29 12:06:00;;;;;;;4.78;1.83;;;;;;;;;;5085481;28;20025;-71
2022/06/29 12:08:28;;;;;;;3.33;1.73;;;;;;;;;;5088022;28;20020;-71
2022/06/29 12:10:54;;;;;;;6.80;1.70;;;;;;;;;;5097290;28;20016;-70
2022/06/29 12:13:20;;;;;;;24.55;18.27;;;;;;;;;;5092020;28;20065;-71
2022/06/29 12:15:45;;;;;;;2.33;1.70;;;;;;;;;;5084185;28;20503;-70
2022/06/29 12:18:12;;;;;;;2.83;1.60;;;;;;;;;;5085812;28;20023;-72
2022/06/29 12:20:38;;;;;;;2.80;1.45;;;;;;;;;;5082462;28;20023;-70
2022/06/29 12:23:04;;;;;;;2.92;1.80;;;;;;;;;;5090320;28;20411;-70
2022/06/29 12:25:30;;;;;;;2.72;1.48;;;;;;;;;;5086354;28;20035;-71
2022/06/29 12:27:55;;;;;;;5.70;1.77;;;;;;;;;;5089335;28;20515;-74
2022/06/29 12:30:21;;;;;;;2.63;1.40;;;;;;;;;;5086543;28;20608;-73
2022/06/29 12:32:47;;;;;;;5.45;1.45;;;;;;;;;;5085265;28;20070;-70
2022/06/29 12:35:13;;;;;;;2.00;1.33;;;;;;;;;;5092638;28;20039;-70
2022/06/29 12:37:43;;;;;;;5.03;1.23;;;;;;;;;;5085269;28;20020;-70
2022/06/29 12:40:10;;;;;;;3.15;1.50;;;;;;;;;;5086780;28;20016;-71
2022/06/29 12:42:36;;;;;;;6.35;1.50;;;;;;;;;;5085130;28;20059;-70
2022/06/29 12:45:01;;;;;;;2.97;1.63;;;;;;;;;;5090713;28;20097;-71
2022/06/29 12:47:28;;;;;;;3.85;1.65;;;;;;;;;;5089403;28;20035;-74
2022/06/29 12:49:54;;;;;;;2.42;1.25;;;;;;;;;;5086666;28;20103;-73
2022/06/29 12:52:23;;;;;;;5.50;1.65;;;;;;;;;;5088957;28;20166;-73
2022/06/29 12:54:48;;;;;;;5.45;1.52;;;;;;;;;;5088327;28;20024;-73
2022/06/29 12:57:16;;;;;;;6.93;1.80;;;;;;;;;;5090409;28;20581;-74
2022/06/29 12:59:42;;;;;;;4.25;1.63;;;;;;;;;;5084537;28;20047;-74
2022/06/29 13:02:08;;;;;;;3.92;1.70;;;;;;;;;;5087526;28;20031;-71
2022/06/29 13:04:34;;;;;;;2.13;1.50;;;;;;;;;;5082779;28;20021;-71
2022/06/29 13:07:00;;;;;;;4.10;1.58;;;;;;;;;;5085377;28;20636;-72
2022/06/29 13:09:26;;;;;;;6.10;1.83;;;;;;;;;;5086483;28;20040;-73
2022/06/29 13:11:53;;;;;;;4.80;1.70;;;;;;;;;;5091192;28;20016;-75
2022/06/29 13:14:18;;;;;;;2.92;1.70;;;;;;;;;;5084862;28;20376;-70
2022/06/29 13:16:45;;;;;;;8.25;5.15;;;;;;;;;;5087011;28;20069;-74
2022/06/29 13:19:11;;;;;;;2.33;1.50;;;;;;;;;;5091161;28;20016;-74
2022/06/29 13:21:38;;;;;;;6.43;1.63;;;;;;;;;;5087052;28;20380;-71
2022/06/29 13:24:04;;;;;;;4.78;1.60;;;;;;;;;;5087569;28;20132;-71
2022/06/29 13:26:30;;;;;;;5.13;1.70;;;;;;;;;;5080518;28;20021;-72
2022/06/29 13:28:56;;;;;;;6.25;1.95;;;;;;;;;;5086722;28;20103;-72
2022/06/29 13:31:22;;;;;;;5.47;1.60;;;;;;;;;;5085269;28;20054;-70
2022/06/29 13:33:48;;;;;;;4.43;1.83;;;;;;;;;;5084021;28;20028;-72
2022/06/29 13:36:14;;;;;;;8.18;1.45;;;;;;;;;;5086979;28;20476;-70
2022/06/29 13:38:41;;;;;;;4.70;1.73;;;;;;;;;;5075394;28;20430;-72
2022/06/29 13:41:07;;;;;;;7.43;1.80;;;;;;;;;;5087756;28;21025;-71
2022/06/29 13:43:33;;;;;;;4.53;1.67;;;;;;;;;;5088962;28;20055;-71
2022/06/29 13:45:59;;;;;;;3.47;1.52;;;;;;;;;;5081847;28;20047;-70
2022/06/29 13:48:25;;;;;;;2.60;1.80;;;;;;;;;;5082406;28;20020;-70
2022/06/29 13:50:51;;;;;;;2.97;1.70;;;;;;;;;;5081677;28;20020;-71
2022/06/29 13:53:17;;;;;;;2.55;1.70;;;;;;;;;;5088241;28;20201;-72
2022/06/29 13:55:43;;;;;;;4.38;1.67;;;;;;;;;;5085438;28;20115;-72
2022/06/29 13:58:09;;;;;;;2.42;1.42;;;;;;;;;;5085169;28;20098;-72
2022/06/29 14:00:35;;;;;;;3.15;1.77;;;;;;;;;;5089034;28;20070;-71
2022/06/29 14:03:02;;;;;;;4.90;1.67;;;;;;;;;;5085392;28;20383;-72
2022/06/29 14:05:28;;;;;;;2.75;1.60;;;;;;;;;;5088907;28;20515;-71
2022/06/29 14:07:54;;;;;;;4.38;1.75;;;;;;;;;;5086373;28;20016;-71
2022/06/29 14:10:20;;;;;;;5.35;1.73;;;;;;;;;;5092444;28;20020;-71
2022/06/29 14:12:47;;;;;;;6.30;1.65;;;;;;;;;;5085128;28;20705;-72
2022/06/29 14:15:14;;;;;;;4.40;1.60;;;;;;;;;;5085248;28;20087;-71
2022/06/29 14:17:40;;;;;;;4.30;1.50;;;;;;;;;;5084609;28;20064;-72
2022/06/29 14:20:06;;;;;;;3.67;1.77;;;;;;;;;;5086460;28;20024;-70
2022/06/29 14:22:32;;;;;;;2.95;1.60;;;;;;;;;;5086276;28;20055;-70
2022/06/29 14:24:58;;;;;;;3.42;1.77;;;;;;;;;;5085964;28;20061;-70
2022/06/29 14:27:25;;;;;;;3.28;1.83;;;;;;;;;;5084459;28;20059;-70
2022/06/29 14:29:51;;;;;;;4.32;1.73;;;;;;;;;;5083460;28;20081;-69
2022/06/29 14:32:17;;;;;;;5.07;1.77;;;;;;;;;;5083267;28;20040;-70
2022/06/29 14:34:44;;;;;;;4.60;1.80;;;;;;;;;;5087277;28;20028;-71
2022/06/29 14:37:10;;;;;;;5.78;1.70;;;;;;;;;;5083307;28;20028;-70
2022/06/29 14:39:36;;;;;;;4.00;1.90;;;;;;;;;;5082852;28;20139;-70